METAR Data
IDs: Format: Raw Decoded Include TAF

Data at: 1141 UTC 16 Feb 2019

PAZK 161056Z AUTO 04005KT 10SM CLR M21/M23 A2999 RMK AO2 SLP247 T12061228 FZRANO
PAZK 160956Z AUTO 02007KT 10SM CLR M21/M23 A2999 RMK AO2 SLP253 T12061228 FZRANO
PAZK 160856Z AUTO 36007KT 10SM CLR M18/M21 A2999 RMK AO2 SLP251 T11781211 51017 FZRANO
PAZK 160756Z AUTO 01007KT 10SM CLR M17/M21 A2997 RMK AO2 SLP244 T11671206 410831206 FZRANO
PAZK 160656Z AUTO 01006KT 10SM CLR M18/M21 A2996 RMK AO2 SLP242 T11781211 FZRANO
PAZK 160556Z AUTO 36006KT 10SM CLR M17/M21 A2993 RMK AO2 SLP241 T11721206 11089 21183 51007 FZRANO
PAZK 160456Z AUTO 00000KT 10SM CLR M17/M21 A2993 RMK AO2 SLP235 T11721211 FZRANO
PAZK 160356Z AUTO 01005KT 10SM CLR M17/M21 A2992 RMK AO2 SLP234 T11721211 FZRANO
PAZK 160256Z AUTO 34006KT 10SM CLR M18/M22 A2991 RMK AO2 SLP234 T11831222 51010 FZRANO
PAZK 160156Z AUTO 04003KT 10SM CLR M13/M19 A2990 RMK AO2 SLP220 T11281194 FZRANO
PAZK 160056Z AUTO 00000KT 10SM CLR M09/M18 A2989 RMK AO2 SLP212 T10891178 FZRANO
PAZK 152356Z AUTO 04005KT 10SM CLR M09/M18 A2988 RMK AO2 SLP207 T10941183 11083 21189 53011 FZRANO
PAZK 152256Z AUTO 00000KT 10SM CLR M08/M17 A2986 RMK AO2 SLP202 T10831172 FZRANO
PAZK 152156Z AUTO 00000KT 10SM CLR M11/M18 A2985 RMK AO2 SLP203 T11111183 FZRANO
PAZK 152056Z AUTO 04005KT 10SM CLR M14/M20 A2984 RMK AO2 SLP204 T11391200 51009 FZRANO
PAZK 151956Z AUTO 02006KT 10SM CLR M15/M21 A2983 RMK AO2 SLP202 T11501206 FZRANO
PAZK 151856Z AUTO 00000KT 10SM CLR M14/M20 A2982 RMK AO2 SLP197 T11441200 FZRANO
PAZK 151756Z AUTO 00000KT 10SM CLR M19/M22 A2981 RMK AO2 SLP200 T11891222 11178 21200 53007 FZRANO
PAZK 151656Z AUTO 24005KT 10SM CLR M18/M22 A2980 RMK AO2 SLP195 T11781217 FZRANO
PAZK 151556Z AUTO 24006KT 10SM CLR M18/M22 A2980 RMK AO2 SLP194 T11831222 FZRANO
PAZK 151456Z AUTO 24007KT 10SM CLR M19/M23 A2979 RMK AO2 SLP191 T11891228 53009 FZRANO
PAZK 151356Z AUTO 24006KT 10SM CLR M19/M23 A2978 RMK AO2 SLP182 T11891228 FZRANO
PAZK 151256Z AUTO 24005KT 10SM CLR M20/M23 A2976 RMK AO2 SLP174 T12001228 FZRANO
PAZK 151156Z AUTO 24006KT 10SM CLR M19/M23 A2976 RMK AO2 SLP172 T11941228 11189 21206 51005 FZRANO
PAZK 151056Z AUTO 24004KT 10SM CLR M21/M23 A2975 RMK AO2 SLP172 T12061233 FZRANO
PAZK 150956Z AUTO 32005KT 10SM CLR M20/M24 A2975 RMK AO2 SLP171 T12001239 FZRANO
PAZK 150856Z AUTO 32005KT 10SM CLR M21/M24 A2974 RMK AO2 SLP170 T12061244 56009 FZRANO
PAZK 150756Z AUTO 33005KT 10SM CLR M20/M24 A2975 RMK AO2 SLP174 T12001239 411221206 FZRANO
PAZK 150656Z AUTO 00000KT 10SM CLR M19/M23 A2976 RMK AO2 SLP178 T11891228 FZRANO
PAZK 150556Z AUTO 25005KT 10SM CLR M19/M23 A2977 RMK AO2 SLP188 T11891228 11122 21206 58008 FZRANO
PAZK 150456Z AUTO 23008KT 10SM FEW032 M20/M24 A2979 RMK AO2 SLP192 T12001239 FZRANO
PAZK 150256Z AUTO 24008KT 10SM BKN033 M18/M23 A2980 RMK AO2 SLP194 T11831228 55004 FZRANO
PAZK 150156Z AUTO 24004KT 10SM OVC035 M14/M21 A2980 RMK AO2 SLP185 T11441211 FZRANO
PAZK 142356Z AUTO 20003KT 10SM OVC037 M13/M19 A2981 RMK AO2 SLP189 T11281189 11122 21189 58010 FZRANO